createdAt,value
2022-12-24T00:01:07.867Z,172.67
2022-12-24T00:03:36.560Z,182.50
2022-12-24T00:06:16.881Z,185.47
2022-12-24T00:08:43.871Z,198.57
2022-12-24T00:11:11.084Z,174.97
2022-12-24T00:13:38.237Z,192.57
2022-12-24T00:16:06.148Z,179.67
2022-12-24T00:18:33.130Z,173.93
2022-12-24T00:21:01.935Z,178.03
2022-12-24T00:23:28.875Z,187.50
2022-12-24T00:25:56.217Z,162.83
2022-12-24T00:28:23.312Z,165.33
2022-12-24T00:30:50.586Z,174.73
2022-12-24T00:33:24.064Z,177.80
2022-12-24T00:35:53.106Z,165.20
2022-12-24T00:38:20.070Z,190.33
2022-12-24T00:40:47.380Z,172.20
2022-12-24T00:43:14.402Z,164.83
2022-12-24T00:45:41.640Z,170.47
2022-12-24T00:48:08.602Z,167.70
2022-12-24T00:50:35.819Z,162.37
2022-12-24T00:53:02.839Z,194.60
2022-12-24T00:55:30.081Z,177.20
2022-12-24T00:57:56.989Z,178.00
2022-12-24T01:00:24.285Z,162.33
2022-12-24T01:02:51.314Z,175.77
2022-12-24T01:05:20.993Z,189.57
2022-12-24T01:07:48.301Z,185.97
2022-12-24T01:10:18.579Z,194.67
2022-12-24T01:12:46.495Z,180.50
2022-12-24T01:15:15.663Z,185.20
2022-12-24T01:17:42.635Z,271.77
2022-12-24T01:20:15.152Z,214.60
2022-12-24T01:22:42.151Z,199.60
2022-12-24T01:25:09.858Z,203.87
2022-12-24T01:27:37.030Z,205.93
2022-12-24T01:30:06.553Z,204.10
2022-12-24T01:32:33.490Z,207.13
2022-12-24T01:35:01.065Z,197.87
2022-12-24T01:37:28.152Z,199.17
2022-12-24T01:40:18.197Z,201.57
2022-12-24T01:43:06.873Z,210.53
2022-12-24T01:45:38.673Z,242.27
2022-12-24T01:48:13.553Z,371.53
2022-12-24T01:50:40.802Z,423.17
2022-12-24T01:53:09.119Z,240.90
2022-12-24T01:55:36.773Z,196.57
2022-12-24T01:58:04.485Z,564.17
2022-12-24T02:00:31.830Z,525.33
2022-12-24T02:02:59.230Z,525.87
2022-12-24T02:05:54.596Z,375.50
2022-12-24T02:08:21.860Z,564.87
2022-12-24T02:10:49.741Z,594.43
2022-12-24T02:13:19.477Z,193.07
2022-12-24T02:16:02.729Z,200.23
2022-12-24T02:18:43.837Z,256.30
2022-12-24T02:21:52.595Z,214.57
2022-12-24T02:24:40.892Z,165.80
2022-12-24T02:27:26.570Z,164.33
2022-12-24T02:30:05.560Z,212.33
2022-12-24T02:32:35.495Z,312.67
2022-12-24T02:35:35.751Z,191.90
2022-12-24T02:38:25.352Z,353.67
2022-12-24T02:40:55.695Z,216.60
2022-12-24T02:43:27.925Z,245.70
2022-12-24T02:45:59.714Z,465.10
2022-12-24T02:48:28.138Z,589.60
2022-12-24T02:51:04.081Z,535.77
2022-12-24T02:53:31.707Z,471.63
2022-12-24T02:56:00.687Z,241.37
2022-12-24T02:58:34.717Z,286.60
2022-12-24T03:01:16.576Z,439.83
2022-12-24T03:04:21.354Z,444.27
2022-12-24T03:06:58.096Z,350.70
2022-12-24T03:09:37.587Z,251.37
2022-12-24T03:12:08.861Z,264.77
2022-12-24T03:14:37.227Z,494.03
2022-12-24T03:17:04.249Z,453.57
2022-12-24T03:19:31.916Z,334.80
2022-12-24T03:22:00.421Z,216.87
2022-12-24T03:24:27.749Z,367.70
2022-12-24T03:26:54.879Z,225.23
2022-12-24T03:29:22.174Z,199.10
2022-12-24T03:31:52.973Z,412.17
2022-12-24T03:34:20.228Z,484.70
2022-12-24T03:36:47.662Z,403.47
2022-12-24T03:39:14.935Z,402.73
2022-12-24T03:41:41.859Z,212.90
2022-12-24T03:44:09.210Z,186.73
2022-12-24T03:46:36.206Z,212.93
2022-12-24T03:49:03.661Z,205.93
2022-12-24T03:51:30.560Z,295.07
2022-12-24T03:53:58.242Z,248.37
2022-12-24T03:56:25.701Z,195.17
2022-12-24T03:58:53.566Z,250.57
2022-12-24T04:01:20.650Z,460.50
2022-12-24T04:03:47.945Z,435.10
2022-12-24T04:06:17.789Z,546.33
2022-12-24T04:08:45.492Z,360.37
2022-12-24T04:11:14.841Z,331.93
2022-12-24T04:13:42.178Z,372.23
2022-12-24T04:16:13.027Z,319.87
2022-12-24T04:18:40.815Z,194.37
2022-12-24T04:21:08.503Z,199.70
2022-12-24T04:23:37.033Z,187.90
2022-12-24T04:26:05.865Z,408.73
2022-12-24T04:28:33.898Z,328.57
2022-12-24T04:31:06.643Z,262.50
2022-12-24T04:33:34.150Z,208.20
2022-12-24T04:36:02.489Z,415.17
2022-12-24T04:38:29.799Z,256.37
2022-12-24T04:41:05.636Z,319.30
2022-12-24T04:43:33.097Z,335.53
2022-12-24T04:46:15.025Z,318.27
2022-12-24T04:48:42.360Z,220.43
2022-12-24T04:51:10.063Z,429.87
2022-12-24T04:53:38.499Z,434.53
2022-12-24T04:56:09.439Z,545.17
2022-12-24T04:58:36.737Z,548.20
2022-12-24T05:01:07.846Z,458.93
2022-12-24T05:03:35.567Z,387.57
2022-12-24T05:06:07.351Z,154.17
2022-12-24T05:08:34.866Z,167.93
2022-12-24T05:11:02.375Z,460.33
2022-12-24T05:13:40.371Z,282.23
2022-12-24T05:16:10.127Z,459.40
2022-12-24T05:18:37.689Z,200.90
2022-12-24T05:21:09.596Z,285.17
2022-12-24T05:23:56.467Z,306.37
2022-12-24T05:26:34.222Z,210.23
2022-12-24T05:29:03.299Z,142.10
2022-12-24T05:31:31.800Z,144.43
2022-12-24T05:33:59.883Z,189.87
2022-12-24T05:36:27.317Z,253.97
2022-12-24T05:38:54.713Z,189.57
2022-12-24T05:41:22.036Z,185.47
2022-12-24T05:43:49.909Z,270.10
2022-12-24T05:46:19.632Z,143.50
2022-12-24T05:48:47.921Z,159.80
2022-12-24T05:51:18.763Z,153.40
2022-12-24T05:53:47.268Z,121.13
2022-12-24T05:56:17.016Z,552.63
2022-12-24T05:58:45.381Z,440.53
2022-12-24T06:01:13.222Z,346.70
2022-12-24T06:03:40.797Z,260.03
2022-12-24T06:06:13.511Z,227.50
2022-12-24T06:08:41.898Z,386.10
2022-12-24T06:11:12.095Z,251.40
2022-12-24T06:13:41.231Z,236.17
2022-12-24T06:16:11.754Z,266.73
2022-12-24T06:18:39.403Z,261.70
2022-12-24T06:21:07.026Z,246.40
2022-12-24T06:23:36.730Z,188.90
2022-12-24T06:26:04.818Z,171.13
2022-12-24T06:28:33.921Z,309.70
2022-12-24T06:31:03.432Z,335.70
2022-12-24T06:33:32.473Z,115.33
2022-12-24T06:35:59.859Z,189.23
2022-12-24T06:38:27.299Z,230.90
2022-12-24T06:40:55.949Z,240.53
2022-12-24T06:43:23.447Z,163.20
2022-12-24T06:45:50.473Z,184.00
2022-12-24T06:48:17.786Z,285.37
2022-12-24T06:50:44.796Z,186.73
2022-12-24T06:53:12.137Z,224.27
2022-12-24T06:55:39.233Z,164.93
2022-12-24T06:58:06.569Z,195.03
2022-12-24T07:00:33.600Z,154.77
2022-12-24T07:03:00.857Z,188.93
2022-12-24T07:05:28.410Z,172.63
2022-12-24T07:07:56.129Z,270.33
2022-12-24T07:10:23.324Z,232.97
2022-12-24T07:12:50.615Z,289.20
2022-12-24T07:15:17.660Z,205.50
2022-12-24T07:17:45.202Z,245.87
2022-12-24T07:20:14.887Z,185.33
2022-12-24T07:22:42.910Z,195.30
2022-12-24T07:25:10.368Z,158.47
2022-12-24T07:27:38.611Z,152.33
2022-12-24T07:30:06.580Z,146.03
2022-12-24T07:32:34.192Z,170.73
2022-12-24T07:35:01.117Z,171.97
2022-12-24T07:37:28.394Z,158.40
2022-12-24T07:39:56.016Z,98.03
2022-12-24T07:42:23.530Z,106.63
2022-12-24T07:44:50.665Z,138.87
2022-12-24T07:47:17.953Z,94.20
2022-12-24T07:49:44.886Z,114.93
2022-12-24T07:52:12.163Z,114.53
2022-12-24T07:54:39.101Z,123.60
2022-12-24T07:57:06.460Z,142.17
2022-12-24T07:59:33.522Z,116.97
2022-12-24T08:02:00.966Z,144.43
2022-12-24T08:04:28.354Z,130.00
2022-12-24T08:06:55.575Z,136.43
2022-12-24T08:09:22.586Z,148.10
2022-12-24T08:11:52.320Z,146.47
2022-12-24T08:14:20.014Z,176.00
2022-12-24T08:16:47.373Z,121.40
2022-12-24T08:19:14.352Z,128.53
2022-12-24T08:21:41.696Z,141.97
2022-12-24T08:24:08.889Z,210.97
2022-12-24T08:26:36.162Z,176.33
2022-12-24T08:29:04.287Z,225.60
2022-12-24T08:31:36.590Z,142.63
2022-12-24T08:34:05.211Z,147.77
2022-12-24T08:36:32.706Z,175.00
2022-12-24T08:39:03.585Z,149.57
2022-12-24T08:41:31.721Z,220.53
2022-12-24T08:43:58.981Z,166.20
2022-12-24T08:46:26.651Z,188.10
2022-12-24T08:48:53.714Z,111.83
2022-12-24T08:51:21.064Z,190.10
2022-12-24T08:53:48.078Z,120.07
2022-12-24T08:56:15.547Z,144.97
2022-12-24T08:58:42.566Z,131.83
2022-12-24T09:01:15.711Z,231.90
2022-12-24T09:03:43.680Z,121.27
2022-12-24T09:06:11.044Z,125.87
2022-12-24T09:08:38.279Z,219.40
2022-12-24T09:11:07.970Z,160.90
2022-12-24T09:13:34.925Z,157.57
2022-12-24T09:16:02.317Z,178.43
2022-12-24T09:18:29.806Z,173.40
2022-12-24T09:21:01.615Z,158.00
2022-12-24T09:23:28.944Z,123.40
2022-12-24T09:25:56.602Z,186.03
2022-12-24T09:28:23.711Z,134.73
2022-12-24T09:31:04.577Z,132.83
2022-12-24T09:33:35.099Z,163.07
2022-12-24T09:36:03.226Z,145.00
2022-12-24T09:38:30.749Z,142.17
2022-12-24T09:41:02.441Z,130.30
2022-12-24T09:43:34.324Z,112.63
2022-12-24T09:46:04.705Z,179.00
2022-12-24T09:48:34.367Z,150.17
2022-12-24T09:51:13.000Z,142.93
2022-12-24T09:53:47.961Z,167.63
2022-12-24T09:56:24.675Z,174.33
2022-12-24T09:58:57.146Z,170.77
2022-12-24T10:01:24.870Z,144.77
2022-12-24T10:03:52.145Z,154.90
2022-12-24T10:06:37.053Z,200.63
2022-12-24T10:09:38.134Z,170.63
2022-12-24T10:12:25.357Z,208.23
2022-12-24T10:15:14.059Z,186.67
2022-12-24T10:17:53.197Z,197.87
2022-12-24T10:20:51.465Z,172.93
2022-12-24T10:23:56.975Z,181.00
2022-12-24T10:26:31.093Z,322.70
2022-12-24T10:29:01.840Z,155.33
2022-12-24T10:31:34.247Z,309.60
2022-12-24T10:34:04.804Z,282.57
2022-12-24T10:36:32.238Z,298.83
2022-12-24T10:38:59.605Z,258.63
2022-12-24T10:41:27.207Z,117.17
2022-12-24T10:43:55.311Z,188.80
2022-12-24T10:49:20.105Z,170.40
2022-12-24T10:51:51.597Z,133.73
2022-12-24T10:54:27.400Z,150.80
2022-12-24T10:57:02.709Z,145.23
2022-12-24T10:59:36.054Z,160.50
2022-12-24T11:02:06.548Z,127.60
2022-12-24T11:04:47.514Z,122.57
2022-12-24T11:07:20.285Z,158.20
2022-12-24T11:10:14.735Z,168.23
2022-12-24T11:13:05.936Z,204.27
2022-12-24T11:15:35.581Z,203.70
2022-12-24T11:18:05.805Z,181.90
2022-12-24T11:20:34.599Z,183.23
2022-12-24T11:23:02.596Z,180.97
2022-12-24T11:25:31.904Z,172.73
2022-12-24T11:28:29.081Z,188.37
2022-12-24T11:31:06.695Z,201.47
2022-12-24T11:33:48.951Z,239.73
2022-12-24T11:36:17.691Z,227.07
2022-12-24T11:38:52.964Z,207.57
2022-12-24T11:41:20.267Z,217.90
2022-12-24T11:43:50.603Z,195.43
2022-12-24T11:46:21.136Z,195.33
2022-12-24T11:48:49.226Z,216.07
2022-12-24T11:51:23.447Z,219.27
2022-12-24T11:54:06.215Z,197.00
2022-12-24T11:56:36.604Z,178.77
2022-12-24T11:59:28.536Z,211.10
2022-12-24T12:02:02.974Z,205.00
2022-12-24T12:04:37.164Z,173.80
2022-12-24T12:07:15.235Z,171.57
2022-12-24T12:09:45.902Z,180.20
2022-12-24T12:12:16.445Z,141.57
2022-12-24T12:14:48.819Z,141.70
2022-12-24T12:17:38.262Z,144.23
2022-12-24T12:20:12.160Z,153.03
2022-12-24T12:22:47.209Z,141.93
2022-12-24T12:25:34.360Z,152.83
2022-12-24T12:28:04.014Z,139.90
2022-12-24T12:30:31.953Z,147.90
2022-12-24T12:33:04.900Z,147.70
2022-12-24T12:35:37.776Z,124.77
2022-12-24T12:38:29.103Z,144.17
2022-12-24T12:40:59.062Z,135.70
2022-12-24T12:43:33.937Z,133.10
2022-12-24T12:46:18.903Z,150.90
2022-12-24T12:49:07.309Z,141.97
2022-12-24T12:51:49.826Z,137.93
2022-12-24T12:54:17.097Z,143.70
2022-12-24T12:56:48.870Z,143.00
2022-12-24T12:59:22.252Z,129.40
2022-12-24T13:02:28.260Z,151.43
2022-12-24T13:05:05.573Z,154.40
2022-12-24T13:08:16.480Z,147.57
2022-12-24T13:10:43.763Z,146.87
2022-12-24T13:13:22.757Z,181.60
2022-12-24T13:16:09.744Z,119.87
2022-12-24T13:18:48.746Z,127.07
2022-12-24T13:21:18.032Z,153.40
2022-12-24T13:23:45.010Z,113.80
2022-12-24T13:26:13.721Z,161.23
2022-12-24T13:28:41.724Z,135.13
2022-12-24T13:31:11.743Z,130.27
2022-12-24T13:33:38.804Z,117.83
2022-12-24T13:36:11.434Z,131.50
2022-12-24T13:38:57.284Z,134.80
2022-12-24T13:41:39.405Z,146.67
2022-12-24T13:44:11.079Z,147.07
2022-12-24T13:46:50.342Z,152.47
2022-12-24T13:49:36.822Z,143.70
2022-12-24T13:52:14.394Z,130.53
2022-12-24T13:55:02.124Z,169.50
2022-12-24T13:57:39.423Z,210.43
2022-12-24T14:00:21.488Z,198.37
2022-12-24T14:02:52.969Z,190.53
2022-12-24T14:05:31.310Z,231.93
2022-12-24T14:08:00.465Z,154.97
2022-12-24T14:10:31.942Z,121.97
2022-12-24T14:12:59.245Z,188.70
2022-12-24T14:15:49.349Z,139.43
2022-12-24T14:18:23.920Z,168.17
2022-12-24T14:20:52.239Z,177.13
2022-12-24T14:23:34.261Z,183.17
2022-12-24T14:26:02.385Z,161.47
2022-12-24T14:28:43.721Z,197.73
2022-12-24T14:31:19.220Z,101.67
2022-12-24T14:33:46.684Z,301.53
2022-12-24T14:36:16.001Z,244.60
2022-12-24T14:38:44.349Z,306.97
2022-12-24T14:41:22.721Z,242.80
2022-12-24T14:44:10.693Z,277.40
2022-12-24T14:46:45.944Z,223.33
2022-12-24T14:49:57.846Z,303.80
2022-12-24T14:53:19.096Z,358.47
2022-12-24T14:55:48.959Z,295.67
2022-12-24T14:58:22.060Z,388.60
2022-12-24T15:00:50.441Z,324.60
2022-12-24T15:03:19.385Z,345.37
2022-12-24T15:05:54.640Z,306.87
2022-12-24T15:08:29.027Z,305.33
2022-12-24T15:11:01.474Z,306.47
2022-12-24T15:13:36.746Z,369.67
2022-12-24T15:16:18.679Z,229.87
2022-12-24T15:18:52.580Z,319.97
2022-12-24T15:21:33.486Z,247.00
2022-12-24T15:24:00.852Z,292.73
2022-12-24T15:26:37.055Z,330.43
2022-12-24T15:29:17.512Z,285.93
2022-12-24T15:31:44.741Z,290.43
2022-12-24T15:34:25.894Z,232.23
2022-12-24T15:36:53.320Z,341.63
2022-12-24T15:39:20.454Z,346.83
2022-12-24T15:42:08.327Z,245.43
2022-12-24T15:44:37.027Z,178.60
2022-12-24T15:47:07.018Z,184.00
2022-12-24T15:49:34.617Z,228.30
2022-12-24T15:52:06.988Z,203.50
2022-12-24T15:54:34.177Z,171.70
2022-12-24T15:57:14.322Z,188.77
2022-12-24T15:59:41.538Z,197.13
2022-12-24T16:02:36.636Z,162.20
2022-12-24T16:05:21.631Z,171.60
2022-12-24T16:08:10.138Z,144.53
2022-12-24T16:11:03.778Z,176.33
2022-12-24T16:13:32.638Z,129.63
2022-12-24T16:16:03.711Z,142.70
2022-12-24T16:18:49.482Z,123.23
2022-12-24T16:21:38.312Z,122.57
2022-12-24T16:24:24.249Z,117.07
2022-12-24T16:26:51.746Z,130.87
2022-12-24T16:29:19.691Z,130.83
2022-12-24T16:31:52.656Z,136.33
2022-12-24T16:34:24.268Z,143.57
2022-12-24T16:36:51.243Z,125.83
2022-12-24T16:39:23.281Z,132.67
2022-12-24T16:42:39.232Z,128.63
2022-12-24T16:45:07.421Z,117.17
2022-12-24T16:47:42.096Z,127.83
2022-12-24T16:50:15.450Z,143.07
2022-12-24T16:52:42.483Z,121.40
2022-12-24T16:55:13.479Z,124.47
2022-12-24T16:57:41.932Z,125.40
2022-12-24T17:00:20.953Z,130.00
2022-12-24T17:02:49.144Z,117.27
2022-12-24T17:05:18.061Z,121.73
2022-12-24T17:07:45.033Z,108.90
2022-12-24T17:10:13.803Z,118.87
2022-12-24T17:12:40.913Z,125.43
2022-12-24T17:15:08.634Z,114.80
2022-12-24T17:17:35.759Z,121.93
2022-12-24T17:20:04.766Z,105.37
2022-12-24T17:22:31.751Z,109.07
2022-12-24T17:24:59.132Z,107.17
2022-12-24T17:27:26.088Z,108.03
2022-12-24T17:29:53.402Z,99.77
2022-12-24T17:32:20.468Z,103.17
2022-12-24T17:34:47.817Z,100.27
2022-12-24T17:37:14.754Z,97.87
2022-12-24T17:39:42.142Z,109.43
2022-12-24T17:42:09.082Z,112.53
2022-12-24T17:44:36.413Z,106.33
2022-12-24T17:47:05.375Z,136.03
2022-12-24T17:49:33.003Z,161.53
2022-12-24T17:52:00.018Z,121.33
2022-12-24T17:54:27.299Z,119.43
2022-12-24T17:56:54.303Z,140.93
2022-12-24T17:59:21.560Z,127.60
2022-12-24T18:01:48.664Z,120.10
2022-12-24T18:04:15.993Z,117.57
2022-12-24T18:06:49.068Z,109.03
2022-12-24T18:09:17.215Z,94.73
2022-12-24T18:11:44.226Z,110.83
2022-12-24T18:14:14.118Z,101.03
2022-12-24T18:16:42.242Z,97.40
2022-12-24T18:19:11.768Z,104.13
2022-12-24T18:21:39.486Z,111.63
2022-12-24T18:24:07.108Z,106.53
2022-12-24T18:26:34.987Z,127.27
2022-12-24T18:29:04.727Z,118.63
2022-12-24T18:31:33.656Z,126.67
2022-12-24T18:34:02.649Z,111.23
2022-12-24T18:36:30.081Z,114.13
2022-12-24T18:38:57.486Z,106.83
2022-12-24T18:41:27.494Z,111.40
2022-12-24T18:43:55.356Z,95.20
2022-12-24T18:46:24.761Z,98.77
2022-12-24T18:48:53.076Z,91.33
2022-12-24T18:51:22.406Z,95.93
2022-12-24T18:53:50.484Z,91.00
2022-12-24T18:56:20.239Z,87.63
2022-12-24T18:58:48.002Z,108.97
2022-12-24T19:01:26.085Z,98.13
2022-12-24T19:03:53.520Z,92.93
2022-12-24T19:06:21.431Z,87.27
2022-12-24T19:08:58.349Z,90.93
2022-12-24T19:11:27.440Z,100.27
2022-12-24T19:13:54.740Z,94.70
2022-12-24T19:16:22.152Z,79.60
2022-12-24T19:18:50.037Z,92.53
2022-12-24T19:21:18.139Z,86.43
2022-12-24T19:23:46.555Z,88.47
2022-12-24T19:26:14.806Z,83.80
2022-12-24T19:28:42.642Z,89.13
2022-12-24T19:31:13.581Z,76.67
2022-12-24T19:33:46.073Z,78.13
2022-12-24T19:36:16.518Z,82.47
2022-12-24T19:38:44.157Z,74.20
2022-12-24T19:41:14.726Z,75.30
2022-12-24T19:43:44.525Z,80.70
2022-12-24T19:46:16.088Z,86.00
2022-12-24T19:48:43.858Z,103.73
2022-12-24T19:51:12.184Z,84.97
2022-12-24T19:53:40.011Z,70.50
2022-12-24T19:56:08.708Z,84.03
2022-12-24T19:58:36.464Z,82.50
2022-12-24T20:01:26.620Z,84.80
2022-12-24T20:03:54.346Z,94.13
2022-12-24T20:06:24.875Z,105.87
2022-12-24T20:08:52.206Z,105.00
2022-12-24T20:11:22.353Z,103.37
2022-12-24T20:13:49.636Z,103.07
2022-12-24T20:16:19.406Z,106.67
2022-12-24T20:18:57.794Z,92.07
2022-12-24T20:21:25.404Z,103.90
2022-12-24T20:23:53.074Z,114.97
2022-12-24T20:26:26.671Z,119.13
2022-12-24T20:28:54.325Z,97.70
2022-12-24T20:31:26.427Z,106.63
2022-12-24T20:33:53.920Z,101.17
2022-12-24T20:36:22.176Z,170.53
2022-12-24T20:38:50.321Z,126.73
2022-12-24T20:41:19.300Z,99.93
2022-12-24T20:43:48.599Z,93.00
2022-12-24T20:46:17.522Z,89.90
2022-12-24T20:48:44.958Z,88.50
2022-12-24T20:51:23.218Z,81.40
2022-12-24T20:53:52.983Z,82.03
2022-12-24T20:56:20.814Z,80.83
2022-12-24T20:58:48.391Z,80.40
2022-12-24T21:01:20.872Z,89.60
2022-12-24T21:03:48.231Z,90.87
2022-12-24T21:06:17.982Z,113.80
2022-12-24T21:08:49.682Z,87.70
2022-12-24T21:11:35.579Z,78.83
2022-12-24T21:14:03.113Z,84.07
2022-12-24T21:16:31.661Z,72.33
2022-12-24T21:18:59.134Z,75.93
2022-12-24T21:21:26.189Z,74.27
2022-12-24T21:23:53.769Z,78.70
2022-12-24T21:26:20.734Z,70.23
2022-12-24T21:28:48.082Z,73.87
2022-12-24T21:31:15.420Z,74.63
2022-12-24T21:33:43.103Z,91.73
2022-12-24T21:36:11.986Z,80.07
2022-12-24T21:38:39.676Z,82.23
2022-12-24T21:41:12.760Z,85.07
2022-12-24T21:43:40.279Z,73.53
2022-12-24T21:46:12.508Z,77.50
2022-12-24T21:48:59.009Z,71.77
2022-12-24T21:51:28.191Z,64.70
2022-12-24T21:54:14.679Z,73.37
2022-12-24T21:57:00.715Z,66.83
2022-12-24T21:59:28.321Z,66.27
2022-12-24T22:01:56.114Z,75.40
2022-12-24T22:04:24.025Z,84.83
2022-12-24T22:07:09.520Z,81.50
2022-12-24T22:09:58.194Z,69.60
2022-12-24T22:12:26.236Z,71.47
2022-12-24T22:14:53.473Z,74.83
2022-12-24T22:17:25.182Z,62.27
2022-12-24T22:19:56.392Z,74.20
2022-12-24T22:22:23.652Z,68.53
2022-12-24T22:24:50.972Z,70.90
2022-12-24T22:27:17.903Z,72.03
2022-12-24T22:29:45.393Z,69.10
2022-12-24T22:32:12.305Z,67.97
2022-12-24T22:34:39.589Z,67.40
2022-12-24T22:37:06.662Z,70.97
2022-12-24T22:39:33.962Z,68.13
2022-12-24T22:42:00.950Z,83.83
2022-12-24T22:44:28.834Z,68.40
2022-12-24T22:46:55.841Z,63.87
2022-12-24T22:49:23.160Z,67.80
2022-12-24T22:51:50.151Z,54.30
2022-12-24T22:54:17.457Z,63.80
2022-12-24T22:56:44.491Z,62.70
2022-12-24T22:59:14.986Z,60.20
2022-12-24T23:01:44.813Z,55.40
2022-12-24T23:04:13.434Z,50.03
2022-12-24T23:06:40.964Z,52.40
2022-12-24T23:09:09.965Z,46.93
2022-12-24T23:11:37.099Z,45.70
2022-12-24T23:14:30.571Z,46.43
2022-12-24T23:16:57.578Z,47.70
2022-12-24T23:19:24.772Z,49.03
2022-12-24T23:21:51.869Z,48.30
2022-12-24T23:24:20.451Z,46.13
2022-12-24T23:26:47.413Z,38.73
2022-12-24T23:29:14.680Z,47.67
2022-12-24T23:31:41.692Z,41.07
2022-12-24T23:34:09.147Z,39.00
2022-12-24T23:36:36.053Z,44.70
2022-12-24T23:39:03.696Z,39.07
2022-12-24T23:41:30.765Z,39.43
2022-12-24T23:43:58.021Z,49.80
2022-12-24T23:46:25.054Z,41.03
2022-12-24T23:48:56.038Z,46.13
2022-12-24T23:51:27.127Z,46.07
2022-12-24T23:53:56.146Z,46.93
2022-12-24T23:56:24.624Z,40.17
2022-12-24T23:58:52.188Z,42.57
